createdAt,value
2018-01-13T00:02:19.263Z,2.50
2018-01-13T00:04:48.775Z,2.30
2018-01-13T00:07:16.235Z,2.20
2018-01-13T00:09:43.816Z,3.10
2018-01-13T00:12:11.211Z,3.35
2018-01-13T00:14:38.633Z,2.47
2018-01-13T00:17:06.000Z,2.55
2018-01-13T00:19:33.416Z,2.55
2018-01-13T00:22:00.806Z,2.30
2018-01-13T00:24:28.204Z,3.27
2018-01-13T00:26:55.589Z,2.30
2018-01-13T00:29:22.989Z,2.35
2018-01-13T00:31:50.631Z,1.85
2018-01-13T00:34:18.032Z,2.17
2018-01-13T00:36:45.453Z,2.20
2018-01-13T00:39:12.792Z,2.35
2018-01-13T00:41:40.258Z,3.15
2018-01-13T00:44:07.621Z,2.13
2018-01-13T00:46:35.023Z,2.27
2018-01-13T00:49:02.472Z,1.80
2018-01-13T00:51:29.847Z,2.30
2018-01-13T00:53:57.237Z,2.47
2018-01-13T00:56:24.639Z,2.00
2018-01-13T00:58:52.020Z,2.70
2018-01-13T01:01:19.422Z,2.50
2018-01-13T01:03:46.812Z,1.83
2018-01-13T01:06:14.276Z,2.00
2018-01-13T01:08:41.747Z,2.70
2018-01-13T01:11:09.134Z,1.55
2018-01-13T01:13:36.497Z,1.95
2018-01-13T01:16:04.564Z,1.75
2018-01-13T01:18:31.946Z,1.87
2018-01-13T01:20:59.420Z,2.13
2018-01-13T01:23:26.807Z,1.77
2018-01-13T01:25:54.195Z,2.30
2018-01-13T01:28:21.574Z,1.70
2018-01-13T01:30:48.968Z,2.20
2018-01-13T01:33:16.590Z,1.30
2018-01-13T01:35:44.051Z,2.05
2018-01-13T01:38:11.433Z,2.05
2018-01-13T01:40:38.896Z,1.90
2018-01-13T01:43:06.300Z,1.67
2018-01-13T01:45:33.706Z,1.70
2018-01-13T01:48:01.099Z,1.87
2018-01-13T01:50:28.599Z,2.00
2018-01-13T01:52:56.002Z,1.57
2018-01-13T01:55:23.378Z,1.37
2018-01-13T01:57:50.757Z,1.65
2018-01-13T02:00:18.184Z,1.60
2018-01-13T02:02:45.653Z,1.50
2018-01-13T02:05:13.051Z,1.85
2018-01-13T02:07:40.414Z,1.70
2018-01-13T02:10:07.821Z,1.60
2018-01-13T02:12:35.181Z,1.45
2018-01-13T02:15:03.353Z,1.55
2018-01-13T02:17:30.802Z,1.25
2018-01-13T02:19:58.214Z,1.65
2018-01-13T02:22:25.608Z,1.47
2018-01-13T02:24:53.020Z,1.15
2018-01-13T02:27:20.536Z,1.53
2018-01-13T02:29:48.070Z,1.35
2018-01-13T02:32:15.418Z,1.30
2018-01-13T02:34:42.828Z,1.30
2018-01-13T02:37:10.265Z,1.15
2018-01-13T02:39:37.661Z,1.40
2018-01-13T02:42:05.122Z,1.50
2018-01-13T02:44:32.513Z,1.50
2018-01-13T02:46:59.875Z,1.00
2018-01-13T02:49:27.289Z,1.57
2018-01-13T02:51:54.696Z,1.10
2018-01-13T02:54:22.195Z,0.80
2018-01-13T02:56:49.557Z,1.00
2018-01-13T02:59:16.949Z,1.35
2018-01-13T03:01:45.241Z,1.15
2018-01-13T03:04:12.695Z,1.27
2018-01-13T03:06:40.277Z,0.80
2018-01-13T03:09:07.622Z,1.27
2018-01-13T03:11:35.093Z,0.90
2018-01-13T03:14:02.494Z,0.90
2018-01-13T03:16:29.886Z,1.10
2018-01-13T03:18:57.256Z,0.90
2018-01-13T03:21:24.672Z,0.85
2018-01-13T03:23:52.038Z,1.07
2018-01-13T03:26:19.404Z,0.90
2018-01-13T03:28:47.028Z,0.90
2018-01-13T03:31:14.469Z,1.10
2018-01-13T03:33:41.838Z,0.85
2018-01-13T03:36:09.396Z,1.10
2018-01-13T03:38:36.748Z,0.80
2018-01-13T03:41:04.117Z,0.95
2018-01-13T03:43:32.327Z,0.65
2018-01-13T03:45:59.688Z,0.80
2018-01-13T03:48:27.137Z,0.80
2018-01-13T03:50:54.515Z,1.05
2018-01-13T03:53:21.950Z,0.67
2018-01-13T03:55:49.357Z,0.90
2018-01-13T03:58:16.794Z,0.75
2018-01-13T04:00:44.318Z,1.25
2018-01-13T04:03:11.708Z,0.65
2018-01-13T04:05:39.163Z,0.90
2018-01-13T04:08:06.639Z,0.80
2018-01-13T04:10:34.002Z,0.93
2018-01-13T04:13:01.407Z,0.80
2018-01-13T04:15:28.963Z,0.90
2018-01-13T04:17:56.404Z,0.80
2018-01-13T04:20:23.771Z,0.90
2018-01-13T04:22:51.177Z,0.80
2018-01-13T04:25:18.556Z,0.90
2018-01-13T04:27:45.985Z,0.70
2018-01-13T04:30:13.351Z,0.60
2018-01-13T04:32:40.708Z,0.90
2018-01-13T04:35:08.124Z,0.65
2018-01-13T04:37:35.594Z,0.80
2018-01-13T04:40:04.154Z,0.60
2018-01-13T04:42:31.567Z,0.60
2018-01-13T04:44:59.155Z,0.75
2018-01-13T04:47:26.486Z,0.80
2018-01-13T04:49:53.919Z,0.90
2018-01-13T04:52:21.306Z,0.70
2018-01-13T04:54:48.681Z,0.50
2018-01-13T04:57:16.093Z,1.00
2018-01-13T04:59:43.519Z,0.70
2018-01-13T05:02:10.898Z,0.60
2018-01-13T05:04:38.405Z,0.75
2018-01-13T05:07:05.849Z,0.70
2018-01-13T05:09:33.205Z,0.65
2018-01-13T05:12:00.585Z,0.50
2018-01-13T05:14:28.143Z,0.60
2018-01-13T05:16:55.563Z,0.80
2018-01-13T05:19:23.077Z,0.63
2018-01-13T05:21:50.548Z,0.50
2018-01-13T05:24:17.910Z,0.53
2018-01-13T05:26:45.478Z,0.70
2018-01-13T05:29:12.879Z,0.75
2018-01-13T05:31:40.230Z,0.50
2018-01-13T05:34:07.624Z,0.70
2018-01-13T05:36:34.986Z,0.50
2018-01-13T05:39:02.382Z,0.80
2018-01-13T05:41:29.732Z,0.73
2018-01-13T05:43:57.169Z,0.55
2018-01-13T05:46:24.578Z,0.70
2018-01-13T05:48:51.939Z,0.53
2018-01-13T05:51:19.329Z,0.40
2018-01-13T05:53:46.675Z,0.65
2018-01-13T05:56:14.104Z,0.55
2018-01-13T05:58:41.465Z,0.60
2018-01-13T06:01:08.938Z,0.77
2018-01-13T06:03:36.325Z,0.65
2018-01-13T06:06:03.757Z,0.50
2018-01-13T06:08:31.136Z,0.60
2018-01-13T06:10:58.551Z,0.60
2018-01-13T06:13:25.896Z,0.53
2018-01-13T06:15:53.309Z,0.90
2018-01-13T06:18:20.718Z,0.70
2018-01-13T06:20:48.121Z,0.60
2018-01-13T06:23:15.642Z,0.60
2018-01-13T06:25:43.088Z,1.00
2018-01-13T06:28:10.493Z,0.50
2018-01-13T06:30:38.082Z,0.80
2018-01-13T06:33:05.435Z,0.90
2018-01-13T06:35:32.807Z,0.60
2018-01-13T06:38:00.202Z,0.60
2018-01-13T06:40:27.562Z,0.80
2018-01-13T06:42:54.954Z,0.60
2018-01-13T06:45:22.299Z,0.60
2018-01-13T06:47:50.005Z,0.73
2018-01-13T06:50:17.467Z,0.80
2018-01-13T06:52:44.946Z,0.70
2018-01-13T06:55:12.434Z,0.80
2018-01-13T06:57:39.927Z,0.85
2018-01-13T07:00:07.302Z,0.83
2018-01-13T07:02:34.773Z,0.90
2018-01-13T07:05:02.221Z,1.20
2018-01-13T07:07:29.596Z,0.93
2018-01-13T07:09:56.976Z,1.10
2018-01-13T07:12:24.343Z,1.10
2018-01-13T07:14:51.727Z,0.70
2018-01-13T07:17:19.129Z,1.10
2018-01-13T07:19:46.516Z,1.40
2018-01-13T07:22:14.015Z,0.90
2018-01-13T07:24:41.390Z,1.30
2018-01-13T07:27:08.804Z,0.80
2018-01-13T07:29:36.266Z,1.05
2018-01-13T07:32:03.687Z,0.97
2018-01-13T07:34:31.031Z,0.80
2018-01-13T07:36:58.559Z,1.60
2018-01-13T07:39:25.953Z,1.10
2018-01-13T07:41:53.419Z,1.20
2018-01-13T07:44:20.801Z,1.05
2018-01-13T07:46:48.186Z,0.80
2018-01-13T07:49:15.552Z,1.00
2018-01-13T07:51:42.989Z,0.70
2018-01-13T07:54:10.366Z,0.80
2018-01-13T07:56:37.866Z,0.85
2018-01-13T07:59:05.318Z,0.65
2018-01-13T08:01:32.686Z,0.93
2018-01-13T08:04:00.066Z,0.70
2018-01-13T08:06:27.421Z,0.95
2018-01-13T08:08:54.884Z,0.90
2018-01-13T08:11:22.279Z,0.87
2018-01-13T08:13:49.674Z,1.00
2018-01-13T08:16:17.173Z,0.90
2018-01-13T08:18:44.547Z,1.10
2018-01-13T08:21:11.900Z,1.07
2018-01-13T08:23:39.479Z,0.90
2018-01-13T08:26:06.851Z,0.95
2018-01-13T08:28:34.246Z,0.73
2018-01-13T08:31:01.705Z,1.10
2018-01-13T08:33:29.087Z,0.80
2018-01-13T08:35:57.542Z,0.87
2018-01-13T08:38:24.941Z,1.03
2018-01-13T08:40:52.393Z,1.00
2018-01-13T08:43:19.906Z,1.00
2018-01-13T08:45:47.380Z,0.87
2018-01-13T08:48:14.890Z,1.33
2018-01-13T08:50:42.331Z,1.10
2018-01-13T08:53:09.973Z,0.97
2018-01-13T08:55:37.337Z,1.00
2018-01-13T08:58:04.816Z,1.30
2018-01-13T09:00:32.165Z,0.90
2018-01-13T09:02:59.521Z,1.10
2018-01-13T09:05:26.914Z,1.27
2018-01-13T09:07:54.294Z,0.70
2018-01-13T09:10:21.725Z,0.90
2018-01-13T09:12:49.224Z,0.93
2018-01-13T09:15:16.598Z,0.80
2018-01-13T09:17:44.011Z,1.03
2018-01-13T09:20:11.408Z,0.80
2018-01-13T09:22:38.820Z,0.90
2018-01-13T09:25:06.239Z,1.20
2018-01-13T09:27:33.688Z,1.23
2018-01-13T09:30:01.065Z,0.73
2018-01-13T09:32:28.474Z,0.90
2018-01-13T09:34:55.861Z,0.90
2018-01-13T09:37:23.267Z,1.13
2018-01-13T09:39:50.751Z,1.25
2018-01-13T09:42:18.229Z,0.80
2018-01-13T09:44:46.949Z,0.95
2018-01-13T09:47:14.569Z,0.97
2018-01-13T09:49:42.036Z,0.85
2018-01-13T09:52:09.557Z,1.25
2018-01-13T09:54:37.010Z,0.77
2018-01-13T09:57:04.361Z,1.10
2018-01-13T09:59:32.181Z,1.05
2018-01-13T10:01:59.578Z,1.10
2018-01-13T10:04:26.978Z,1.30
2018-01-13T10:09:28.232Z,1.00
2018-01-13T10:11:55.634Z,0.93
2018-01-13T10:14:23.226Z,0.90
2018-01-13T10:16:50.704Z,0.70
2018-01-13T10:19:18.176Z,1.10
2018-01-13T10:21:45.643Z,0.80
2018-01-13T10:24:13.012Z,1.20
2018-01-13T10:26:40.442Z,0.95
2018-01-13T10:29:07.832Z,1.20
2018-01-13T10:31:35.205Z,1.35
2018-01-13T10:34:02.593Z,0.70
2018-01-13T10:36:29.935Z,1.00
2018-01-13T10:38:57.325Z,1.05
2018-01-13T10:41:24.729Z,1.20
2018-01-13T10:43:52.062Z,0.90
2018-01-13T10:46:19.622Z,1.10
2018-01-13T10:48:47.049Z,1.07
2018-01-13T10:51:14.516Z,1.10
2018-01-13T10:53:41.898Z,1.60
2018-01-13T10:56:09.344Z,3.35
2018-01-13T10:58:36.725Z,1.70
2018-01-13T11:01:04.125Z,1.23
2018-01-13T11:03:31.547Z,1.00
2018-01-13T11:05:58.900Z,1.20
2018-01-13T11:08:26.310Z,1.03
2018-01-13T11:10:53.666Z,0.90
2018-01-13T11:13:21.088Z,1.00
2018-01-13T11:15:48.523Z,1.10
2018-01-13T11:18:15.935Z,0.90
2018-01-13T11:20:43.342Z,1.10
2018-01-13T11:23:10.678Z,0.90
2018-01-13T11:25:38.059Z,1.10
2018-01-13T11:28:05.450Z,1.25
2018-01-13T11:30:32.821Z,1.00
2018-01-13T11:33:00.205Z,0.87
2018-01-13T11:35:27.637Z,0.90
2018-01-13T11:37:54.999Z,1.20
2018-01-13T11:40:22.330Z,1.20
2018-01-13T11:42:49.728Z,1.47
2018-01-13T11:45:17.090Z,1.20
2018-01-13T11:47:44.458Z,1.70
2018-01-13T11:50:11.915Z,0.85
2018-01-13T11:52:39.313Z,1.40
2018-01-13T11:55:06.749Z,4.20
2018-01-13T11:57:34.256Z,0.90
2018-01-13T12:00:01.633Z,1.35
2018-01-13T12:02:29.056Z,1.15
2018-01-13T12:04:56.484Z,1.05
2018-01-13T12:07:23.863Z,1.20
2018-01-13T12:09:51.282Z,1.40
2018-01-13T12:12:18.687Z,1.30
2018-01-13T12:14:46.117Z,1.35
2018-01-13T12:17:13.517Z,0.80
2018-01-13T12:19:40.949Z,1.27
2018-01-13T12:22:08.406Z,1.10
2018-01-13T12:24:35.842Z,1.40
2018-01-13T12:27:03.250Z,9.40
2018-01-13T12:29:30.790Z,14.93
2018-01-13T12:31:58.206Z,10.87
2018-01-13T12:34:25.606Z,4.05
2018-01-13T12:36:53.127Z,1.75
2018-01-13T12:39:20.559Z,1.30
2018-01-13T12:41:47.938Z,1.37
2018-01-13T12:44:15.432Z,1.97
2018-01-13T12:46:42.952Z,2.25
2018-01-13T12:49:10.539Z,2.55
2018-01-13T12:51:37.966Z,1.80
2018-01-13T12:54:05.365Z,3.50
2018-01-13T12:56:32.850Z,4.33
2018-01-13T12:59:00.230Z,3.40
2018-01-13T13:01:27.749Z,4.00
2018-01-13T13:03:55.138Z,2.77
2018-01-13T13:06:22.550Z,3.20
2018-01-13T13:08:49.950Z,3.90
2018-01-13T13:11:17.358Z,2.70
2018-01-13T13:13:44.763Z,3.00
2018-01-13T13:16:12.624Z,4.50
2018-01-13T13:18:40.086Z,2.45
2018-01-13T13:21:07.529Z,2.35
2018-01-13T13:23:34.905Z,2.43
2018-01-13T13:26:02.314Z,2.50
2018-01-13T13:28:29.720Z,2.80
2018-01-13T13:30:57.177Z,2.50
2018-01-13T13:33:24.577Z,1.90
2018-01-13T13:35:52.007Z,1.75
2018-01-13T13:38:19.528Z,3.17
2018-01-13T13:40:46.908Z,2.07
2018-01-13T13:43:14.325Z,2.30
2018-01-13T13:45:41.731Z,2.40
2018-01-13T13:48:09.247Z,2.95
2018-01-13T13:50:36.755Z,2.45
2018-01-13T13:53:04.161Z,2.00
2018-01-13T13:55:31.548Z,2.33
2018-01-13T13:57:59.020Z,2.30
2018-01-13T14:00:26.458Z,2.10
2018-01-13T14:02:53.880Z,2.20
2018-01-13T14:05:21.303Z,2.00
2018-01-13T14:07:48.691Z,2.37
2018-01-13T14:10:16.110Z,1.90
2018-01-13T14:12:43.555Z,2.10
2018-01-13T14:15:11.021Z,1.60
2018-01-13T14:17:38.432Z,2.07
2018-01-13T14:20:05.830Z,2.07
2018-01-13T14:22:33.267Z,3.35
2018-01-13T14:25:00.643Z,2.30
2018-01-13T14:27:28.197Z,2.25
2018-01-13T14:29:55.559Z,1.95
2018-01-13T14:32:23.021Z,2.50
2018-01-13T14:34:50.384Z,2.63
2018-01-13T14:37:17.720Z,1.60
2018-01-13T14:39:45.170Z,2.50
2018-01-13T14:42:12.535Z,3.03
2018-01-13T14:44:40.125Z,2.60
2018-01-13T14:47:07.586Z,2.80
2018-01-13T14:49:34.965Z,2.30
2018-01-13T14:52:02.423Z,2.60
2018-01-13T14:54:29.775Z,2.53
2018-01-13T14:56:57.394Z,2.60
2018-01-13T14:59:24.953Z,2.30
2018-01-13T15:04:25.669Z,2.37
2018-01-13T15:06:53.084Z,2.50
2018-01-13T15:09:20.591Z,2.80
2018-01-13T15:11:48.122Z,2.30
2018-01-13T15:14:15.761Z,2.80
2018-01-13T15:16:43.179Z,2.30
2018-01-13T15:19:11.489Z,2.70
2018-01-13T15:21:38.950Z,2.53
2018-01-13T15:24:06.325Z,2.65
2018-01-13T15:26:33.747Z,2.70
2018-01-13T15:29:01.158Z,1.90
2018-01-13T15:31:28.507Z,2.30
2018-01-13T15:33:55.928Z,2.87
2018-01-13T15:36:23.347Z,3.10
2018-01-13T15:38:50.776Z,2.40
2018-01-13T15:41:18.233Z,2.87
2018-01-13T15:43:45.682Z,2.67
2018-01-13T15:46:13.105Z,2.83
2018-01-13T15:48:40.574Z,2.30
2018-01-13T15:51:07.947Z,3.10
2018-01-13T15:53:35.350Z,2.90
2018-01-13T15:56:02.752Z,2.70
2018-01-13T15:58:30.206Z,2.15
2018-01-13T16:00:57.650Z,2.97
2018-01-13T16:03:25.061Z,2.20
2018-01-13T16:05:52.475Z,2.70
2018-01-13T16:08:19.841Z,2.77
2018-01-13T16:10:47.296Z,2.57
2018-01-13T16:13:14.727Z,2.95
2018-01-13T16:15:42.209Z,2.37
2018-01-13T16:18:09.728Z,2.57
2018-01-13T16:20:37.140Z,3.55
2018-01-13T16:23:04.546Z,3.40
2018-01-13T16:25:31.919Z,2.40
2018-01-13T16:27:59.343Z,2.57
2018-01-13T16:30:27.422Z,3.15
2018-01-13T16:32:54.794Z,3.05
2018-01-13T16:35:22.225Z,2.97
2018-01-13T16:37:49.562Z,3.30
2018-01-13T16:40:17.926Z,2.95
2018-01-13T16:42:45.307Z,4.10
2018-01-13T16:45:12.674Z,2.90
2018-01-13T16:47:40.128Z,2.85
2018-01-13T16:50:07.482Z,3.25
2018-01-13T16:52:34.886Z,3.10
2018-01-13T16:55:02.305Z,3.10
2018-01-13T16:57:29.739Z,3.80
2018-01-13T16:59:57.342Z,3.10
2018-01-13T17:02:24.747Z,3.87
2018-01-13T17:04:52.144Z,3.30
2018-01-13T17:07:19.543Z,3.75
2018-01-13T17:09:46.912Z,3.50
2018-01-13T17:12:14.309Z,3.20
2018-01-13T17:14:41.714Z,3.40
2018-01-13T17:17:09.226Z,3.10
2018-01-13T17:19:36.566Z,3.05
2018-01-13T17:22:03.977Z,2.75
2018-01-13T17:24:31.334Z,4.13
2018-01-13T17:26:58.725Z,3.85
2018-01-13T17:29:26.126Z,3.40
2018-01-13T17:31:53.630Z,3.05
2018-01-13T17:34:21.116Z,3.65
2018-01-13T17:36:48.577Z,3.93
2018-01-13T17:39:15.922Z,3.20
2018-01-13T17:41:43.330Z,3.30
2018-01-13T17:44:10.710Z,3.50
2018-01-13T17:46:38.098Z,3.55
2018-01-13T17:49:05.525Z,2.70
2018-01-13T17:51:33.143Z,3.65
2018-01-13T17:54:00.632Z,3.83
2018-01-13T17:56:28.139Z,3.60
2018-01-13T17:58:55.525Z,3.55
2018-01-13T18:01:22.863Z,3.07
2018-01-13T18:03:50.215Z,3.35
2018-01-13T18:06:17.598Z,3.55
2018-01-13T18:08:45.026Z,3.60
2018-01-13T18:11:12.473Z,3.90
2018-01-13T18:13:39.854Z,3.60
2018-01-13T18:16:07.269Z,3.95
2018-01-13T18:18:34.697Z,3.40
2018-01-13T18:21:02.052Z,4.10
2018-01-13T18:23:29.433Z,4.40
2018-01-13T18:25:56.833Z,3.60
2018-01-13T18:28:24.210Z,3.73
2018-01-13T18:30:51.566Z,4.60
2018-01-13T18:33:19.036Z,4.70
2018-01-13T18:35:46.710Z,4.13
2018-01-13T18:38:14.079Z,4.00
2018-01-13T18:40:41.594Z,4.80
2018-01-13T18:43:08.962Z,4.07
2018-01-13T18:45:36.361Z,4.25
2018-01-13T18:48:03.735Z,3.90
2018-01-13T18:50:31.137Z,4.75
2018-01-13T18:52:58.600Z,4.77
2018-01-13T18:55:26.605Z,4.70
2018-01-13T18:57:54.367Z,4.70
2018-01-13T19:00:21.874Z,4.67
2018-01-13T19:02:49.275Z,4.93
2018-01-13T19:05:16.694Z,4.07
2018-01-13T19:07:44.050Z,4.10
2018-01-13T19:10:11.441Z,3.87
2018-01-13T19:12:38.837Z,4.43
2018-01-13T19:15:06.280Z,4.93
2018-01-13T19:17:33.737Z,4.10
2018-01-13T19:20:01.324Z,4.27
2018-01-13T19:22:28.715Z,4.20
2018-01-13T19:24:56.341Z,4.60
2018-01-13T19:27:23.746Z,3.60
2018-01-13T19:29:51.115Z,4.10
2018-01-13T19:32:18.642Z,3.60
2018-01-13T19:34:46.138Z,4.25
2018-01-13T19:37:13.526Z,3.95
2018-01-13T19:39:41.007Z,4.00
2018-01-13T19:42:08.402Z,4.65
2018-01-13T19:47:09.128Z,4.40
2018-01-13T19:49:36.493Z,4.23
2018-01-13T19:52:03.889Z,3.70
2018-01-13T19:54:31.241Z,4.40
2018-01-13T19:56:58.629Z,4.00
2018-01-13T19:59:26.013Z,3.83
2018-01-13T20:01:53.398Z,4.50
2018-01-13T20:04:20.819Z,3.90
2018-01-13T20:06:48.226Z,3.70
2018-01-13T20:09:15.762Z,4.23
2018-01-13T20:11:43.170Z,4.53
2018-01-13T20:14:10.621Z,3.70
2018-01-13T20:16:38.023Z,4.20
2018-01-13T20:19:05.464Z,3.90
2018-01-13T20:21:32.856Z,3.77
2018-01-13T20:24:00.306Z,3.97
2018-01-13T20:26:27.859Z,3.50
2018-01-13T20:28:55.222Z,4.55
2018-01-13T20:31:22.638Z,3.80
2018-01-13T20:33:49.995Z,4.13
2018-01-13T20:36:17.393Z,4.10
2018-01-13T20:38:44.814Z,3.95
2018-01-13T20:41:12.177Z,3.77
2018-01-13T20:43:39.643Z,3.70
2018-01-13T20:46:06.999Z,4.27
2018-01-13T20:48:34.354Z,3.83
2018-01-13T20:51:01.763Z,4.67
2018-01-13T20:53:29.130Z,3.60
2018-01-13T20:55:56.594Z,4.15
2018-01-13T20:58:24.023Z,4.15
2018-01-13T21:00:51.370Z,4.15
2018-01-13T21:03:18.796Z,4.60
2018-01-13T21:05:46.148Z,3.90
2018-01-13T21:08:13.559Z,4.80
2018-01-13T21:10:41.346Z,3.63
2018-01-13T21:13:08.742Z,3.73
2018-01-13T21:15:36.218Z,3.65
2018-01-13T21:18:03.580Z,4.03
2018-01-13T21:20:30.992Z,4.53
2018-01-13T21:22:58.384Z,4.33
2018-01-13T21:25:25.818Z,4.20
2018-01-13T21:27:53.322Z,4.30
2018-01-13T21:30:20.687Z,4.87
2018-01-13T21:32:48.151Z,5.20
2018-01-13T21:35:15.563Z,4.50
2018-01-13T21:37:42.961Z,3.70
2018-01-13T21:40:10.324Z,4.25
2018-01-13T21:42:37.927Z,4.70
2018-01-13T21:45:05.381Z,5.05
2018-01-13T21:47:32.717Z,4.50
2018-01-13T21:50:00.063Z,4.65
2018-01-13T21:52:27.626Z,3.40
2018-01-13T21:54:54.966Z,4.60
2018-01-13T21:57:22.366Z,4.23
2018-01-13T21:59:49.757Z,4.43
2018-01-13T22:02:17.117Z,3.80
2018-01-13T22:04:44.526Z,4.00
2018-01-13T22:07:11.904Z,4.53
2018-01-13T22:09:39.337Z,3.65
2018-01-13T22:12:06.782Z,4.05
2018-01-13T22:14:34.159Z,3.90
2018-01-13T22:17:01.634Z,4.00
2018-01-13T22:19:29.041Z,3.55
2018-01-13T22:21:56.474Z,3.15
2018-01-13T22:24:24.061Z,3.30
2018-01-13T22:26:51.480Z,3.80
2018-01-13T22:29:18.856Z,3.70
2018-01-13T22:31:46.264Z,3.45
2018-01-13T22:34:13.631Z,3.70
2018-01-13T22:36:41.025Z,3.57
2018-01-13T22:39:08.440Z,2.97
2018-01-13T22:41:35.821Z,2.83
2018-01-13T22:44:03.227Z,3.27
2018-01-13T22:46:30.587Z,2.95
2018-01-13T22:48:57.954Z,3.47
2018-01-13T22:51:25.340Z,3.47
2018-01-13T22:53:52.735Z,3.65
2018-01-13T22:56:20.083Z,3.27
2018-01-13T22:58:47.476Z,3.57
2018-01-13T23:01:14.837Z,3.45
2018-01-13T23:03:42.189Z,3.30
2018-01-13T23:06:09.604Z,3.50
2018-01-13T23:08:37.057Z,3.00
2018-01-13T23:11:04.425Z,3.35
2018-01-13T23:13:31.819Z,3.00
2018-01-13T23:15:59.218Z,2.70
2018-01-13T23:18:26.705Z,2.85
2018-01-13T23:20:54.067Z,3.20
2018-01-13T23:23:21.429Z,2.65
2018-01-13T23:25:48.826Z,3.35
2018-01-13T23:28:16.290Z,3.50
2018-01-13T23:30:43.727Z,2.40
2018-01-13T23:33:11.311Z,2.10
2018-01-13T23:35:38.955Z,2.70
2018-01-13T23:38:06.438Z,2.90
2018-01-13T23:40:33.902Z,3.90
2018-01-13T23:43:01.406Z,2.50
2018-01-13T23:45:28.862Z,3.37
2018-01-13T23:47:56.285Z,2.90
2018-01-13T23:50:23.819Z,3.05
2018-01-13T23:52:51.186Z,2.37
2018-01-13T23:55:18.589Z,2.70
2018-01-13T23:57:46.051Z,2.83
